Latest Coastal Weather Observations for Burnie Port

IDT60701

Issued at 6:22 pm EDT Friday 3 December 2021 (issued every 10 minutes, with the page automatically refreshed every 10 minutes)

About coastal observations | Map of coastal stations | Coastal observations for TAS | Marine services | Other Formats
Station Details ID: 091344 Name: BURNIE NTC AWS Lat: -41.05 Lon: 145.91 Height: 0.0 m
Data from the previous 72 hours. | See also: Recent months for locations in Tasmania
Date/Time
EDT
Wind Sea
Height
m
Swell Vis
km
Cloud Weather Temp
°C
Press
MSL
hPa
Rain since
9am
mm
Dir  Spd
kts
Gust
kts
Height
m
Period
s
Dir
03/06:00pm W 13 23 - - - - - - - 19.1 1014.4 -
03/05:30pm W 12 20 - - - - - - - 19.8 1014.2 -
03/05:00pm WNW 13 21 - - - - - - - 20.7 1014.1 -
03/04:30pm NW 18 23 - - - - - - - 18.8 1014.0 -
03/04:00pm NNW 18 22 - - - - - - - 17.9 1014.0 -
03/03:30pm NNW 16 22 - - - - - - - 17.8 1014.5 -
03/03:00pm NNW 16 19 - - - - - - - 17.3 1014.8 -
03/02:30pm NNW 18 20 - - - - - - - 17.1 1015.1 -
03/02:00pm NNW 15 18 - - - - - - - 16.8 1015.3 -
03/01:30pm NNW 17 21 - - - - - - - 16.4 1015.8 -
03/01:26pm NNW 17 20 - - - - - - - 16.3 1015.8 -
03/01:00pm NNW 5 10 - - - - - - - 18.1 1015.9 -
03/12:30pm SW 6 11 - - - - - - - 18.1 1016.0 -
03/12:00pm SW 7 13 - - - - - - - 17.5 1016.2 -
03/11:30am SSE 5 12 - - - - - - - 16.7 1016.5 -
03/11:00am SSW 9 14 - - - - - - - 16.3 1016.8 -
03/10:30am SSW 14 20 - - - - - - - 15.8 1016.9 -
03/10:00am SSW 10 16 - - - - - - - 15.6 1016.9 -
03/09:30am SSW 12 19 - - - - - - - 15.1 1017.0 -
03/09:00am SW 9 18 - - - - - - - 15.3 1016.9 -
03/08:30am WSW 11 18 - - - - - - - 14.8 1016.6 -
03/08:00am SW 10 19 - - - - - - - 14.3 1016.2 -
03/07:30am SW 8 16 - - - - - - - 13.9 1015.7 -
03/07:00am SW 8 15 - - - - - - - 13.5 1015.3 -
03/06:30am SW 13 19 - - - - - - - 12.8 1015.4 -
03/06:00am SW 11 18 - - - - - - - 12.4 1015.2 -
03/05:30am SW 12 17 - - - - - - - 12.1 1015.1 -
03/05:00am SW 12 18 - - - - - - - 12.2 1014.9 -
03/04:30am SW 13 20 - - - - - - - 12.4 1014.1 -
03/04:00am WSW 10 17 - - - - - - - 12.4 1014.1 -
03/03:30am W 6 10 - - - - - - - 12.2 1013.9 -
03/03:00am W 4 8 - - - - - - - 12.4 1013.6 -
03/02:30am WSW 7 12 - - - - - - - 12.5 1013.6 -
03/02:00am WSW 6 12 - - - - - - - 12.6 1013.8 -
03/01:30am W 8 14 - - - - - - - 12.9 1013.9 -
03/01:00am WNW 7 12 - - - - - - - 13.1 1013.9 -
03/12:30am WSW 10 16 - - - - - - - 13.5 1013.9 -
03/12:00am WSW 10 22 - - - - - - - 13.4 1014.1 -
 
Date/Time
EDT
Wind Sea
Height
m
Swell Vis
km
Cloud Weather Temp
°C
Press
MSL
hPa
Rain since
9am
mm
Dir  Spd
kts
Gust
kts
Height
m
Period
s
Dir
02/11:30pm WSW 11 20 - - - - - - - 13.7 1014.0 -
02/11:00pm WSW 11 19 - - - - - - - 14.3 1013.8 -
02/10:30pm W 5 9 - - - - - - - 15.4 1013.5 -
02/10:00pm W 7 11 - - - - - - - 16.1 1013.1 -
02/09:30pm WSW 6 10 - - - - - - - 17.3 1012.0 -
02/09:00pm WNW 6 11 - - - - - - - 17.5 1011.7 -
02/08:30pm WNW 4 7 - - - - - - - 17.7 1010.6 -
02/08:00pm NW 10 13 - - - - - - - 17.3 1010.8 -
02/07:30pm NNW 9 11 - - - - - - - 17.5 1010.6 -
02/07:00pm NNW 4 5 - - - - - - - 17.6 1009.6 -
02/06:30pm N 3 3 - - - - - - - 17.7 1010.0 -
02/06:00pm NNW 3 5 - - - - - - - 17.7 1010.4 -
02/05:30pm N 7 8 - - - - - - - 17.5 1010.9 -
02/05:00pm NNE 4 5 - - - - - - - 17.3 1010.8 -
02/04:30pm NNE 6 8 - - - - - - - 17.2 1011.2 -
02/04:00pm NE 4 7 - - - - - - - 17.3 1011.2 -
02/03:30pm ENE 4 6 - - - - - - - 17.3 1011.0 -
02/03:00pm NE 3 6 - - - - - - - 17.4 1011.7 -
02/02:30pm ENE 3 6 - - - - - - - 17.6 1012.1 -
02/02:00pm ENE 4 7 - - - - - - - 17.5 1012.3 -
02/01:30pm E 6 8 - - - - - - - 17.5 1012.5 -
02/01:00pm E 6 7 - - - - - - - 17.4 1012.9 -
02/12:30pm E 8 9 - - - - - - - 17.4 1013.0 -
02/12:00pm E 8 10 - - - - - - - 17.4 1013.2 -
02/11:30am E 8 10 - - - - - - - 17.6 1013.6 -
02/11:00am E 9 11 - - - - - - - 17.8 1013.7 -
02/10:30am E 9 11 - - - - - - - 18.0 1013.7 -
02/10:00am E 11 13 - - - - - - - 18.1 1013.8 -
02/09:30am ESE 11 13 - - - - - - - 18.0 1013.9 -
02/09:00am E 11 14 - - - - - - - 18.0 1014.0 -
02/08:30am ESE 11 14 - - - - - - - 18.3 1013.8 -
02/08:00am ESE 12 15 - - - - - - - 18.6 1013.4 -
02/07:30am ESE 12 15 - - - - - - - 18.7 1013.1 -
02/07:00am SE 10 15 - - - - - - - 18.4 1012.9 -
02/06:30am SE 11 16 - - - - - - - 18.4 1012.7 -
02/06:00am SE 12 16 - - - - - - - 18.0 1012.5 -
02/05:30am SE 12 15 - - - - - - - 18.3 1012.4 -
02/05:00am SE 11 16 - - - - - - - 18.3 1012.4 -
02/04:30am ESE 11 14 - - - - - - - 18.3 1012.4 -
02/04:00am ESE 11 13 - - - - - - - 18.2 1012.4 -
02/03:30am SE 9 14 - - - - - - - 18.0 1012.5 -
02/03:00am SE 6 8 - - - - - - - 18.0 1012.6 -
02/02:30am SSE 6 10 - - - - - - - 17.6 1012.8 -
02/02:00am S 9 11 - - - - - - - 17.5 1012.9 -
02/01:30am S 9 11 - - - - - - - 17.2 1013.1 -
02/01:00am SSE 5 8 - - - - - - - 17.3 1013.4 -
02/12:30am SSE 4 6 - - - - - - - 17.4 1013.6 -
02/12:00am S 7 9 - - - - - - - 17.2 1013.7 -
 
Date/Time
EDT
Wind Sea
Height
m
Swell Vis
km
Cloud Weather Temp
°C
Press
MSL
hPa
Rain since
9am
mm
Dir  Spd
kts
Gust
kts
Height
m
Period
s
Dir
01/11:30pm SE 7 10 - - - - - - - 17.8 1013.7 -
01/11:00pm SE 7 10 - - - - - - - 17.7 1013.8 -
01/10:30pm ESE 10 12 - - - - - - - 17.8 1013.9 -
01/10:00pm ESE 9 11 - - - - - - - 17.8 1013.9 -
01/09:30pm ESE 9 11 - - - - - - - 17.8 1013.7 -
01/09:00pm ESE 7 9 - - - - - - - 18.1 1013.6 -
01/08:30pm ESE 7 9 - - - - - - - 18.2 1013.3 -
01/08:00pm ESE 7 8 - - - - - - - 18.2 1013.0 -
01/07:30pm E 7 9 - - - - - - - 18.3 1013.0 -
01/07:00pm ESE 8 9 - - - - - - - 18.4 1012.6 -
01/06:30pm ESE 8 10 - - - - - - - 18.4 1012.3 -
01/06:00pm ESE 9 10 - - - - - - - 18.4 1012.2 -
01/05:30pm E 8 10 - - - - - - - 18.4 1012.3 -
01/05:00pm ESE 8 10 - - - - - - - 18.5 1012.4 -
01/04:30pm E 8 10 - - - - - - - 18.0 1012.5 -
01/04:00pm E 8 10 - - - - - - - 17.9 1012.8 -
01/03:30pm ESE 9 11 - - - - - - - 17.8 1012.9 -
01/03:00pm ESE 12 13 - - - - - - - 17.9 1013.1 -
01/02:30pm ESE 8 10 - - - - - - - 18.0 1013.8 -
01/02:00pm ESE 11 13 - - - - - - - 18.2 1013.4 -
01/01:30pm ESE 10 12 - - - - - - - 17.6 1013.6 -
01/01:00pm ESE 9 10 - - - - - - - 17.6 1013.7 -
01/12:30pm ESE 8 10 - - - - - - - 17.3 1014.0 -
01/12:00pm ESE 8 10 - - - - - - - 17.4 1014.1 -
01/11:30am ESE 10 12 - - - - - - - 17.0 1014.2 -
01/11:00am E 11 13 - - - - - - - 16.8 1014.2 -
01/10:30am ESE 13 15 - - - - - - - 16.7 1014.2 -
01/10:00am ESE 14 15 - - - - - - - 16.6 1014.2 -
01/09:30am ESE 14 16 - - - - - - - 16.6 1014.4 -
01/09:00am ESE 13 15 - - - - - - - 16.6 1014.4 -
01/08:30am ESE 15 17 - - - - - - - 16.6 1014.1 -
01/08:00am ESE 14 17 - - - - - - - 16.6 1013.8 -
01/07:30am ESE 13 16 - - - - - - - 16.7 1013.6 -
01/07:00am ESE 12 16 - - - - - - - 16.7 1013.4 -
01/06:30am SE 9 14 - - - - - - - 16.4 1013.3 -
01/06:00am SE 11 16 - - - - - - - 16.4 1013.1 -
01/05:00am SE 14 17 - - - - - - - 16.2 1013.3 -
01/04:30am SE 13 16 - - - - - - - 16.3 1013.3 -
01/04:00am ESE 11 14 - - - - - - - 16.3 1013.6 -
01/03:30am SE 11 14 - - - - - - - 16.3 1013.7 -
01/03:00am SE 11 15 - - - - - - - 16.3 1014.0 -
01/02:30am ESE 12 15 - - - - - - - 16.4 1014.3 -
01/02:00am ESE 13 15 - - - - - - - 16.6 1014.7 -
01/01:30am ESE 15 17 - - - - - - - 16.4 1014.7 -
01/01:00am ESE 14 16 - - - - - - - 16.4 1014.9 -
01/12:30am ESE 12 15 - - - - - - - 16.5 1015.1 -
01/12:00am SE 11 14 - - - - - - - 16.6 1015.1 -
 
Date/Time
EDT
Wind Sea
Height
m
Swell Vis
km
Cloud Weather Temp
°C
Press
MSL
hPa
Rain since
9am
mm
Dir  Spd
kts
Gust
kts
Height
m
Period
s
Dir
30/11:30pm SE 9 12 - - - - - - - 16.9 1015.4 -
30/11:00pm SSE 8 10 - - - - - - - 16.6 1015.4 -
30/10:30pm SE 8 11 - - - - - - - 16.9 1015.6 -
30/10:00pm SE 9 11 - - - - - - - 16.8 1015.6 -
30/09:30pm SE 6 9 - - - - - - - 16.7 1015.6 -
30/09:00pm SE 6 7 - - - - - - - 16.9 1015.6 -
30/08:30pm SE 7 9 - - - - - - - 16.8 1015.2 -
30/08:00pm ESE 9 10 - - - - - - - 16.8 1014.9 -
30/07:30pm ESE 10 12 - - - - - - - 16.8 1014.8 -
30/07:00pm ESE 8 10 - - - - - - - 16.8 1014.9 -
30/06:30pm ESE 7 9 - - - - - - - 16.8 1014.9 -

Other formats

Comma delimited format used in spreadsheet applications
http://www.bom.gov.au/fwo/IDT60701/IDT60701.95963.axf

JavaScript Object Notation format (JSON) in row-major order
http://www.bom.gov.au/fwo/IDT60701/IDT60701.95963.json

Data quality

Most of these data are generated automatically and are frequently updated. Quality checks on data are not normally performed. It is possible for incorrect values to appear. Refer to information at About Latest Weather Observations and please check the disclaimer before using these data.